Time;durP1;ratioP1;P1;durP2;ratioP2;P2;SDS_P1;SDS_P2;PMS_P1;PMS_P2;Temp;Humidity;BMP_temperature;BMP_pressure;BME280_temperature;BME280_humidity;BME280_pressure;Samples;Min_cycle;Max_cycle;Signal;HPM_P1;HPM_P2
2022/05/11 00:01:59;;;;;;;12.27;9.13;;;16.90;91.80;;;;;;12765481;23;20651;-84
2022/05/11 00:07:02;;;;;;;19.73;9.85;;;16.80;91.80;;;;;;12766629;23;20195;-84
2022/05/11 00:12:05;;;;;;;18.05;9.95;;;16.70;92.40;;;;;;12765545;23;20187;-84
2022/05/11 00:17:08;;;;;;;9.43;6.28;;;16.60;92.80;;;;;;12793200;23;20192;-84
2022/05/11 00:22:10;;;;;;;14.90;9.90;;;16.50;93.60;;;;;;12766297;23;20239;-84
2022/05/11 00:27:13;;;;;;;10.57;6.25;;;16.40;93.80;;;;;;12792626;23;20203;-84
2022/05/11 00:32:15;;;;;;;14.25;9.02;;;16.60;94.10;;;;;;12765372;23;20242;-84
2022/05/11 00:37:19;;;;;;;15.27;10.25;;;16.50;94.50;;;;;;12792801;23;20515;-84
2022/05/11 00:42:21;;;;;;;11.45;9.60;;;16.40;95.20;;;;;;12792439;23;20693;-84
2022/05/11 00:47:30;;;;;;;14.40;10.02;;;16.30;95.80;;;;;;12792694;23;20168;-84
2022/05/11 00:52:49;;;;;;;9.07;7.85;;;16.30;95.50;;;;;;12810782;23;20230;-84
2022/05/11 00:58:12;;;;;;;14.07;8.65;;;16.00;97.60;;;;;;12808750;23;20532;-84
2022/05/11 01:03:17;;;;;;;11.35;8.85;;;15.70;98.60;;;;;;12809563;23;20227;-84
2022/05/11 01:08:21;;;;;;;12.15;9.30;;;15.50;99.70;;;;;;12790478;23;20211;-84
2022/05/11 01:13:23;;;;;;;14.30;8.70;;;15.20;99.90;;;;;;12810569;23;20638;-84
2022/05/11 01:18:28;;;;;;;14.82;9.25;;;15.10;99.90;;;;;;12792817;23;20574;-84
2022/05/11 01:23:51;;;;;;;17.50;9.60;;;14.90;99.90;;;;;;12765904;23;20578;-84
2022/05/11 01:28:54;;;;;;;8.90;6.40;;;14.80;99.90;;;;;;12809415;23;20198;-84
2022/05/11 01:33:57;;;;;;;13.70;9.82;;;15.00;99.90;;;;;;12792218;23;20514;-84
2022/05/11 01:39:07;;;;;;;8.85;7.30;;;15.10;99.90;;;;;;12766126;23;20183;-84
2022/05/11 01:44:16;;;;;;;16.23;11.03;;;15.20;99.90;;;;;;12810420;23;20167;-84
2022/05/11 01:49:19;;;;;;;16.02;10.35;;;15.30;99.90;;;;;;12764671;23;20210;-84
2022/05/11 01:54:22;;;;;;;14.40;10.25;;;15.00;99.90;;;;;;12792294;23;20175;-84
2022/05/11 01:59:24;;;;;;;4.45;4.05;;;14.90;99.90;;;;;;12791254;23;20191;-84
2022/05/11 02:09:47;;;;;;;10.88;9.40;;;15.20;99.90;;;;;;12743940;23;1251005;-84
2022/05/11 02:14:50;;;;;;;13.40;9.82;;;15.00;99.90;;;;;;12787319;23;20230;-84
2022/05/11 02:19:52;;;;;;;13.43;10.15;;;15.00;99.90;;;;;;12812755;23;20191;-84
2022/05/11 02:24:54;;;;;;;24.88;11.20;;;15.30;99.90;;;;;;12805534;23;20207;-84
2022/05/11 02:29:57;;;;;;;12.73;10.65;;;15.20;99.90;;;;;;12767280;23;20242;-84
2022/05/11 02:35:12;;;;;;;14.35;11.00;;;14.90;99.90;;;;;;12811756;23;20556;-84
2022/05/11 02:40:21;;;;;;;10.38;8.07;;;15.00;99.90;;;;;;12777474;23;20529;-84
2022/05/11 02:45:25;;;;;;;12.73;10.50;;;15.00;99.90;;;;;;12812614;23;20238;-84
2022/05/11 02:50:33;;;;;;;12.27;9.45;;;15.10;99.90;;;;;;12793695;23;20215;-84
2022/05/11 02:55:38;;;;;;;16.57;9.53;;;15.20;99.90;;;;;;12767037;23;20183;-85
2022/05/11 03:00:44;;;;;;;14.07;10.93;;;15.30;99.90;;;;;;12767215;23;20223;-85
2022/05/11 03:05:47;;;;;;;14.32;10.68;;;15.40;99.90;;;;;;12784895;23;20168;-85
2022/05/11 03:10:49;;;;;;;15.68;9.57;;;15.30;99.90;;;;;;12741281;23;20600;-85
2022/05/11 03:15:53;;;;;;;12.32;8.18;;;15.30;99.90;;;;;;12766952;23;20238;-85
2022/05/11 03:20:57;;;;;;;13.77;10.27;;;15.20;99.90;;;;;;12793299;23;20257;-84
2022/05/11 03:25:59;;;;;;;2.50;2.10;;;15.30;99.90;;;;;;12799705;23;20168;-85
2022/05/11 03:31:02;;;;;;;7.60;5.55;;;16.20;99.90;;;;;;12792853;23;20174;-85
2022/05/11 03:36:05;;;;;;;18.33;10.65;;;16.50;99.90;;;;;;12767226;23;20500;-85
2022/05/11 03:41:07;;;;;;;13.35;9.13;;;16.90;99.90;;;;;;12765241;23;20274;-85
2022/05/11 03:46:10;;;;;;;19.38;10.77;;;16.40;99.90;;;;;;12792848;23;20171;-84
2022/05/11 03:51:12;;;;;;;19.98;11.85;;;16.00;99.90;;;;;;12790468;23;20230;-85
2022/05/11 03:56:15;;;;;;;17.63;11.18;;;15.40;99.90;;;;;;12788990;23;20188;-85
2022/05/11 04:01:19;;;;;;;18.35;10.68;;;15.90;99.90;;;;;;12766266;23;20230;-85
2022/05/11 04:06:22;;;;;;;16.27;10.77;;;16.00;99.90;;;;;;12766496;23;20223;-84
2022/05/11 04:11:25;;;;;;;15.05;10.85;;;16.00;99.90;;;;;;12765086;23;20219;-85
2022/05/11 04:16:27;;;;;;;17.17;9.48;;;16.00;99.90;;;;;;12767786;23;20706;-84
2022/05/11 04:21:30;;;;;;;23.38;13.95;;;16.00;99.90;;;;;;12793838;23;20472;-85
2022/05/11 04:26:33;;;;;;;19.85;12.48;;;15.80;99.90;;;;;;12792129;23;20167;-84
2022/05/11 04:31:36;;;;;;;23.40;13.18;;;15.60;99.90;;;;;;12793370;23;20168;-84
2022/05/11 04:36:39;;;;;;;31.30;14.18;;;15.60;99.90;;;;;;12792343;23;20168;-84
2022/05/11 04:41:42;;;;;;;24.77;13.93;;;15.70;99.90;;;;;;12766321;23;20284;-84
2022/05/11 04:46:44;;;;;;;24.63;13.68;;;15.80;99.90;;;;;;12765458;23;20168;-85
2022/05/11 04:51:49;;;;;;;21.60;12.77;;;15.90;99.90;;;;;;12809833;23;20164;-85
2022/05/11 04:56:52;;;;;;;3.30;2.35;;;15.90;99.90;;;;;;12765337;23;20642;-85
2022/05/11 05:01:55;;;;;;;20.50;13.75;;;16.80;99.90;;;;;;12791543;23;20164;-85
2022/05/11 05:06:58;;;;;;;21.55;13.50;;;16.80;99.90;;;;;;12791186;23;20230;-85
2022/05/11 05:12:01;;;;;;;26.88;14.88;;;16.70;99.90;;;;;;12765912;23;20172;-85
2022/05/11 05:17:08;;;;;;;7.85;5.05;;;16.60;99.90;;;;;;12809320;23;20187;-85
2022/05/11 05:22:11;;;;;;;6.30;4.95;;;17.00;99.90;;;;;;12765842;23;20222;-85
2022/05/11 05:27:16;;;;;;;6.97;4.05;;;17.70;99.90;;;;;;12764987;23;20183;-84
2022/05/11 05:32:22;;;;;;;4.75;4.28;;;18.70;97.70;;;;;;12808756;23;20172;-84
2022/05/11 05:37:24;;;;;;;5.95;5.15;;;19.10;96.20;;;;;;12792481;23;20187;-84
2022/05/11 05:42:28;;;;;;;19.50;11.93;;;19.30;94.90;;;;;;12791974;23;20558;-84
2022/05/11 05:47:30;;;;;;;11.02;7.53;;;19.30;98.40;;;;;;12782277;23;20168;-88
2022/05/11 05:52:33;;;;;;;16.33;12.23;;;19.30;96.00;;;;;;12763284;23;20523;-84
2022/05/11 05:57:36;;;;;;;17.05;10.80;;;19.60;99.80;;;;;;12793140;23;20187;-84
2022/05/11 06:02:38;;;;;;;21.27;13.38;;;19.90;98.20;;;;;;12795572;23;20176;-90
2022/05/11 06:07:41;;;;;;;15.82;11.93;;;20.00;98.60;;;;;;12771678;23;20203;-95
2022/05/11 06:12:43;;;;;;;18.60;10.70;;;19.80;99.20;;;;;;12775681;23;20179;-95
2022/05/11 06:17:46;;;;;;;17.73;10.73;;;20.00;98.20;;;;;;12751248;23;20200;-94
2022/05/11 06:22:50;;;;;;;11.82;9.43;;;20.10;97.60;;;;;;12753031;23;20203;-96
2022/05/11 06:27:53;;;;;;;17.95;12.85;;;20.20;96.80;;;;;;12753643;23;20234;-95
2022/05/11 06:32:56;;;;;;;19.98;12.07;;;19.70;97.70;;;;;;12756189;23;20180;-96
2022/05/11 06:38:08;;;;;;;18.17;10.00;;;20.10;96.70;;;;;;12778389;23;20251;-96
2022/05/11 06:43:13;;;;;;;23.90;13.68;;;20.10;95.90;;;;;;12778606;23;20238;-95
2022/05/11 06:48:15;;;;;;;29.17;13.90;;;20.10;95.90;;;;;;12795865;23;20168;-95
2022/05/11 06:53:19;;;;;;;14.75;8.85;;;20.30;95.10;;;;;;12777511;23;20183;-96
2022/05/11 07:03:42;;;;;;;13.55;10.85;;;20.50;94.90;;;;;;12777312;23;20175;-95
2022/05/11 07:08:45;;;;;;;12.50;11.13;;;20.60;94.80;;;;;;12752860;23;20733;-96
2022/05/11 07:13:48;;;;;;;19.00;11.70;;;20.70;94.70;;;;;;12777371;23;20179;-95
2022/05/11 07:18:51;;;;;;;17.15;11.18;;;20.90;94.60;;;;;;12753745;23;20199;-96
2022/05/11 07:23:53;;;;;;;16.13;9.65;;;20.70;94.90;;;;;;12776349;23;20183;-95
2022/05/11 07:28:56;;;;;;;11.88;8.38;;;21.00;93.00;;;;;;12807899;23;20168;-96
2022/05/11 07:33:59;;;;;;;24.10;8.10;;;21.50;91.30;;;;;;12802540;23;20179;-96
2022/05/11 07:39:02;;;;;;;12.80;8.90;;;21.40;91.50;;;;;;12794501;23;20250;-96
2022/05/11 07:44:06;;;;;;;14.90;9.65;;;21.60;91.30;;;;;;12791262;23;20192;-96
2022/05/11 07:49:09;;;;;;;12.18;8.88;;;;;;;;;;12764191;23;20183;-96
2022/05/11 07:54:13;;;;;;;10.57;9.02;;;21.80;91.10;;;;;;12767910;23;20663;-96
2022/05/11 08:04:39;;;;;;;19.25;11.52;;;22.10;90.40;;;;;;12797653;23;20230;-96
2022/05/11 08:09:42;;;;;;;9.85;8.55;;;22.10;91.40;;;;;;12774693;23;20204;-96
2022/05/11 08:14:48;;;;;;;12.85;8.52;;;22.10;87.80;;;;;;12781699;23;20179;-96
2022/05/11 08:20:20;;;;;;;20.13;13.80;;;21.90;87.60;;;;;;12736103;23;20204;-96
2022/05/11 08:25:27;;;;;;;21.00;12.68;;;22.00;90.90;;;;;;12725488;23;20334;-96
2022/05/11 08:36:00;;;;;;;18.05;11.88;;;22.00;90.80;;;;;;12727354;23;20188;-96
2022/05/11 08:41:18;;;;;;;16.25;11.30;;;22.10;90.40;;;;;;12755460;23;20258;-96
2022/05/11 08:46:51;;;;;;;8.98;7.78;;;22.00;89.40;;;;;;12759270;23;20287;-96
2022/05/11 08:52:04;;;;;;;9.15;7.40;;;22.30;85.40;;;;;;12824984;23;20493;-96
2022/05/11 08:57:18;;;;;;;15.70;9.95;;;22.40;85.20;;;;;;12778898;23;20183;-96
2022/05/11 09:03:00;;;;;;;12.23;9.30;;;22.40;89.70;;;;;;12801476;23;20230;-96
2022/05/11 09:08:06;;;;;;;14.73;9.90;;;22.70;84.40;;;;;;12772068;23;20203;-96
2022/05/11 09:13:13;;;;;;;13.50;10.38;;;22.90;88.90;;;;;;12771087;23;20176;-96
2022/05/11 09:18:16;;;;;;;10.82;9.85;;;22.80;87.30;;;;;;12773368;23;20195;-96
2022/05/11 09:23:36;;;;;;;17.50;10.27;;;22.80;87.80;;;;;;12776687;23;20180;-96
2022/05/11 09:28:45;;;;;;;15.82;10.68;;;22.80;87.50;;;;;;12776089;23;20179;-96
2022/05/11 09:34:04;;;;;;;10.90;9.55;;;22.90;86.20;;;;;;12776365;23;20179;-96
2022/05/11 09:39:28;;;;;;;10.05;8.48;;;22.90;86.80;;;;;;12774571;23;20199;-96
2022/05/11 09:44:43;;;;;;;12.82;9.32;;;;;;;;;;12778347;23;20203;-96
2022/05/11 09:49:46;;;;;;;18.63;14.57;;;23.20;87.30;;;;;;12779423;23;20255;-96
2022/05/11 09:54:51;;;;;;;8.30;7.50;;;23.30;84.80;;;;;;12810653;23;20183;-96
2022/05/11 10:00:18;;;;;;;14.07;9.68;;;22.80;80.20;;;;;;12789256;23;20204;-96
2022/05/11 10:05:29;;;;;;;11.48;9.55;;;23.50;81.50;;;;;;12791029;23;20215;-96
2022/05/11 10:10:49;;;;;;;10.93;9.00;;;;;;;;;;12822946;23;20295;-96
2022/05/11 10:22:27;;;;;;;12.25;7.40;;;24.20;76.90;;;;;;12691470;23;20200;-96
2022/05/11 10:54:43;;;;;;;18.52;13.00;;;23.40;77.30;;;;;;12655869;23;20285;-96
2022/05/11 11:00:13;;;;;;;7.57;6.88;;;24.20;82.60;;;;;;12656571;23;20220;-96
2022/05/11 11:19:11;;;;;;;8.43;7.63;;;23.60;81.10;;;;;;12702472;23;20494;-95
2022/05/11 11:24:22;;;;;;;7.85;7.18;;;23.50;77.70;;;;;;12665165;23;20177;-96
2022/05/11 11:29:31;;;;;;;8.20;7.53;;;22.90;81.40;;;;;;12673418;23;20493;-96
2022/05/11 11:34:43;;;;;;;7.85;6.95;;;22.60;78.50;;;;;;12652753;23;20177;-94
2022/05/11 11:39:55;;;;;;;7.88;7.18;;;22.10;78.20;;;;;;12654762;23;20205;-95
2022/05/11 11:44:58;;;;;;;15.57;10.25;;;21.40;81.10;;;;;;12662020;23;20259;-94
2022/05/11 11:50:01;;;;;;;9.10;7.63;;;22.50;85.90;;;;;;12690766;23;20231;-96
2022/05/11 11:55:24;;;;;;;7.32;6.72;;;22.40;78.40;;;;;;12713849;23;20212;-96
2022/05/11 12:00:29;;;;;;;8.68;7.28;;;21.50;80.60;;;;;;12714545;23;20231;-94
2022/05/11 12:05:54;;;;;;;8.18;7.43;;;22.30;80.30;;;;;;12690654;23;20235;-95
2022/05/11 12:23:30;;;;;;;8.73;7.82;;;21.40;80.80;;;;;;12613165;23;20178;-95
2022/05/11 12:28:37;;;;;;;8.82;7.93;;;21.20;81.60;;;;;;12588623;23;20181;-94
2022/05/11 12:34:05;;;;;;;10.20;9.10;;;21.60;80.80;;;;;;12606812;23;20201;-96
2022/05/11 12:39:08;;;;;;;8.77;7.88;;;22.50;85.40;;;;;;12611994;23;20213;-94
2022/05/11 12:44:14;;;;;;;8.25;7.55;;;22.30;78.60;;;;;;12588497;23;20260;-95
2022/05/11 12:49:19;;;;;;;9.40;8.15;;;21.40;80.30;;;;;;12456968;23;20275;-95
2022/05/11 12:54:26;;;;;;;8.75;7.15;;;21.80;80.60;;;;;;12439779;23;20291;-95
2022/05/11 12:59:36;;;;;;;8.40;7.60;;;22.10;78.70;;;;;;12362410;24;20244;-96
2022/05/11 13:05:32;;;;;;;8.10;7.30;;;21.40;80.10;;;;;;12354858;24;20218;-95
2022/05/11 13:11:01;;;;;;;8.98;8.15;;;21.50;80.30;;;;;;12354296;24;20505;-96
2022/05/11 13:23:00;;;;;;;8.52;7.72;;;21.40;80.70;;;;;;12397305;23;20200;-96
2022/05/11 13:29:05;;;;;;;16.25;9.05;;;21.50;80.50;;;;;;12471133;23;20186;-96
2022/05/11 13:40:59;;;;;;;8.48;7.72;;;23.10;76.00;;;;;;12698223;23;20516;-96
2022/05/11 13:46:09;;;;;;;8.40;7.60;;;21.90;78.20;;;;;;12613992;23;20174;-95
2022/05/11 13:51:39;;;;;;;8.38;7.65;;;21.90;79.00;;;;;;12616389;23;20198;-96
2022/05/11 14:03:31;;;;;;;8.18;7.32;;;21.40;80.00;;;;;;12623753;23;20298;-96
2022/05/11 14:09:23;;;;;;;14.32;7.78;;;21.60;80.00;;;;;;12743287;22;20207;-86
2022/05/11 14:14:26;;;;;;;19.15;6.45;;;;;;;;;;12814448;23;20191;-83
2022/05/11 14:19:29;;;;;;;8.65;6.18;;;24.70;74.30;;;;;;12816531;23;20215;-83
2022/05/11 14:24:32;;;;;;;9.23;6.38;;;25.30;72.90;;;;;;12793473;23;20175;-82
2022/05/11 14:29:35;;;;;;;11.85;6.95;;;;;;;;;;12790556;23;20222;-82
2022/05/11 14:34:39;;;;;;;7.90;6.85;;;25.20;71.50;;;;;;12791741;23;20246;-83
2022/05/11 14:39:44;;;;;;;16.40;7.53;;;25.20;71.70;;;;;;12794256;23;20625;-82
2022/05/11 14:44:46;;;;;;;7.90;6.80;;;25.20;71.20;;;;;;12818125;23;20211;-82
2022/05/11 14:50:05;;;;;;;7.32;6.18;;;25.40;70.70;;;;;;12792056;23;20418;-82
2022/05/11 14:55:09;;;;;;;7.65;6.32;;;25.30;70.60;;;;;;12792639;23;20238;-84
2022/05/11 15:05:34;;;;;;;7.85;7.05;;;25.40;68.20;;;;;;12792573;23;20176;-82
2022/05/11 15:10:37;;;;;;;10.68;6.97;;;25.20;68.40;;;;;;12791613;23;20199;-82
2022/05/11 15:15:40;;;;;;;9.23;6.80;;;25.20;68.70;;;;;;12794102;23;20511;-82
2022/05/11 15:20:46;;;;;;;7.55;6.50;;;25.00;68.70;;;;;;12794281;23;20527;-81
2022/05/11 15:25:49;;;;;;;7.63;6.00;;;25.00;68.60;;;;;;12803021;23;20222;-83
2022/05/11 15:30:51;;;;;;;6.95;6.18;;;24.90;68.60;;;;;;12790926;23;20172;-83
2022/05/11 15:35:56;;;;;;;6.95;6.30;;;24.80;69.00;;;;;;12832484;23;20858;-83
2022/05/11 15:41:01;;;;;;;6.78;6.20;;;24.80;69.10;;;;;;12788106;23;20223;-83
2022/05/11 15:46:04;;;;;;;9.02;6.50;;;24.70;69.30;;;;;;12788668;23;20183;-83
2022/05/11 15:51:11;;;;;;;6.22;5.63;;;24.70;69.40;;;;;;12798201;23;20555;-83
2022/05/11 15:56:14;;;;;;;6.65;5.95;;;24.60;69.50;;;;;;12789232;23;20187;-83
2022/05/11 16:01:23;;;;;;;8.45;6.00;;;24.40;69.50;;;;;;12792373;23;20187;-84
2022/05/11 16:06:27;;;;;;;6.45;5.85;;;24.40;69.60;;;;;;12764491;23;20175;-82
2022/05/11 16:11:33;;;;;;;8.23;6.03;;;24.40;69.50;;;;;;12813752;23;20176;-96
2022/05/11 16:22:30;;;;;;;9.27;5.63;;;;;;;;;;12768954;23;20204;-94
2022/05/11 16:27:39;;;;;;;9.65;5.70;;;24.40;69.30;;;;;;12721130;23;20180;-96
2022/05/11 16:47:21;;;;;;;6.60;5.90;;;24.00;70.00;;;;;;12788576;23;20153;-96
2022/05/11 16:53:32;;;;;;;6.28;5.65;;;23.70;70.70;;;;;;12708382;23;20547;-96
2022/05/11 17:27:12;;;;;;;6.68;5.88;;;23.00;72.70;;;;;;12762640;23;20141;-95
2022/05/11 18:48:35;;;;;;;16.10;7.45;;;21.80;83.80;;;;;;12790509;23;20148;-96
2022/05/11 18:54:59;;;;;;;15.80;8.30;;;21.40;86.40;;;;;;12562412;23;20178;-96
2022/05/11 19:01:00;;;;;;;8.63;7.65;;;21.10;88.60;;;;;;12558439;23;20191;-95
2022/05/11 19:46:41;;;;;;;14.02;9.40;;;20.10;94.70;;;;;;12670155;23;20201;-88
2022/05/11 19:51:50;;;;;;;14.65;9.13;;;20.00;95.70;;;;;;12746220;23;20243;-88
2022/05/11 19:56:53;;;;;;;18.00;10.32;;;;;;;;;;12731173;23;20172;-88
2022/05/11 20:01:56;;;;;;;16.90;10.05;;;;;;;;;;12730725;23;20192;-89
2022/05/11 20:07:00;;;;;;;14.40;9.82;;;;;;;;;;12729462;23;20648;-91
2022/05/11 20:12:03;;;;;;;17.17;10.50;;;;;;;;;;12731611;23;20172;-91
2022/05/11 20:17:07;;;;;;;18.92;10.85;;;;;;;;;;12732185;23;20213;-91
2022/05/11 20:22:10;;;;;;;19.67;10.73;;;;;;;;;;12749899;23;20208;-90
2022/05/11 20:27:13;;;;;;;9.52;8.43;;;;;;;;;;12732019;23;20165;-90
2022/05/11 20:37:40;;;;;;;11.95;10.70;;;;;;;;;;12734433;23;20222;-89
2022/05/11 20:42:43;;;;;;;15.45;9.43;;;;;;;;;;12731407;23;20189;-90
2022/05/11 20:47:47;;;;;;;14.63;9.65;;;;;;;;;;12733426;23;20201;-88
2022/05/11 20:52:51;;;;;;;23.30;9.57;;;;;;;;;;12730254;23;20223;-89
2022/05/11 20:57:55;;;;;;;12.05;9.55;;;;;;;;;;12732261;23;20176;-90
2022/05/11 21:02:58;;;;;;;9.98;8.80;;;;;;;;;;12733039;23;20192;-89
2022/05/11 21:08:00;;;;;;;18.75;10.18;;;;;;;;;;12730703;23;20177;-90
2022/05/11 21:13:03;;;;;;;16.45;8.60;;;;;;;;;;12730578;23;20627;-89
2022/05/11 21:18:06;;;;;;;10.15;7.50;;;;;;;;;;12733083;23;20168;-90
2022/05/11 21:23:09;;;;;;;10.65;9.18;;;;;;;;;;12728851;23;20694;-90
2022/05/11 21:28:12;;;;;;;8.90;7.53;;;;;;;;;;12732855;23;20185;-90
2022/05/11 21:33:15;;;;;;;9.05;8.13;;;;;;;;;;12738175;23;20493;-90
2022/05/11 21:38:17;;;;;;;10.10;7.78;;;;;;;;;;12736521;23;20173;-89
2022/05/11 21:43:20;;;;;;;10.82;7.50;;;;;;;;;;12736525;23;20188;-90
2022/05/11 21:48:23;;;;;;;8.00;7.18;;;20.20;95.90;;;;;;12749370;23;20196;-90
2022/05/11 21:53:25;;;;;;;8.65;7.63;;;19.90;96.80;;;;;;12747000;23;20184;-90
2022/05/11 21:58:29;;;;;;;9.38;7.82;;;19.80;96.90;;;;;;12791777;23;20216;-89
2022/05/11 22:03:32;;;;;;;8.52;7.63;;;20.00;96.30;;;;;;12810008;23;20195;-89
2022/05/11 22:08:35;;;;;;;9.30;7.53;;;19.60;97.20;;;;;;12793010;23;20180;-92
2022/05/11 22:13:37;;;;;;;10.18;7.88;;;19.90;96.30;;;;;;12791782;23;20160;-91
2022/05/11 22:18:40;;;;;;;7.40;6.30;;;20.00;96.10;;;;;;12792113;23;20195;-91
2022/05/11 22:23:43;;;;;;;7.30;6.60;;;20.20;95.30;;;;;;12812336;23;20260;-91
2022/05/11 22:28:46;;;;;;;8.77;7.88;;;20.50;94.30;;;;;;12792687;23;20153;-91
2022/05/11 22:33:48;;;;;;;10.95;7.03;;;20.10;95.90;;;;;;12794311;23;20212;-91
2022/05/11 22:38:51;;;;;;;9.60;8.02;;;19.90;95.90;;;;;;12793552;23;20233;-91
2022/05/11 22:43:53;;;;;;;13.13;8.20;;;19.80;96.40;;;;;;12794219;23;20235;-92
2022/05/11 22:48:56;;;;;;;6.45;5.93;;;19.60;96.70;;;;;;12792935;23;20269;-91
2022/05/11 22:53:59;;;;;;;8.38;6.55;;;19.90;95.60;;;;;;12794351;23;20215;-91
2022/05/11 22:59:01;;;;;;;8.65;7.13;;;20.10;95.10;;;;;;12794891;23;20237;-91
2022/05/11 23:04:04;;;;;;;7.20;6.50;;;20.20;94.80;;;;;;12793384;23;20255;-92
2022/05/11 23:09:12;;;;;;;8.18;7.35;;;20.00;95.00;;;;;;12812202;23;20224;-90
2022/05/11 23:14:15;;;;;;;7.22;6.53;;;20.00;95.50;;;;;;12792824;23;20248;-91
2022/05/11 23:19:18;;;;;;;7.13;6.53;;;19.90;95.20;;;;;;12794371;23;20295;-91
2022/05/11 23:24:21;;;;;;;8.00;6.63;;;20.20;94.50;;;;;;12793757;23;20268;-92
2022/05/11 23:29:23;;;;;;;7.03;6.32;;;20.40;94.30;;;;;;12738537;23;20181;-91
2022/05/11 23:34:26;;;;;;;7.55;6.85;;;20.50;93.40;;;;;;12757415;23;20173;-91
2022/05/11 23:39:29;;;;;;;7.10;6.25;;;20.30;93.90;;;;;;12739139;23;20515;-91
2022/05/11 23:44:32;;;;;;;9.82;7.57;;;20.30;93.70;;;;;;12739970;23;20192;-91
2022/05/11 23:49:34;;;;;;;8.57;7.10;;;20.60;93.70;;;;;;12738281;23;20615;-91
2022/05/11 23:54:39;;;;;;;11.43;7.18;;;20.50;93.80;;;;;;12738931;23;20181;-91
2022/05/11 23:59:42;;;;;;;7.53;6.93;;;20.30;93.50;;;;;;12737160;23;20180;-91
